createdAt,value
2022-08-09T00:01:57.353Z,102639.78
2022-08-09T00:04:34.513Z,102608.63
2022-08-09T00:07:10.653Z,102642.00
2022-08-09T00:09:40.644Z,102635.09
2022-08-09T00:12:15.601Z,102633.50
2022-08-09T00:14:54.500Z,102625.38
2022-08-09T00:18:05.056Z,102621.38
2022-08-09T00:20:16.938Z,102619.03
2022-08-09T00:22:47.303Z,102621.50
2022-08-09T00:25:23.273Z,102617.41
2022-08-09T00:27:55.910Z,102629.56
2022-08-09T00:30:27.055Z,102627.81
2022-08-09T00:32:56.549Z,102623.19
2022-08-09T00:35:29.647Z,102623.09
2022-08-09T00:38:12.730Z,102616.72
2022-08-09T00:40:52.486Z,102621.59
2022-08-09T00:44:11.766Z,102617.03
2022-08-09T00:46:14.596Z,102619.13
2022-08-09T00:49:03.886Z,102616.81
2022-08-09T00:51:33.847Z,102614.41
2022-08-09T00:54:03.649Z,102615.59
2022-08-09T00:56:33.203Z,102618.84
2022-08-09T00:59:02.824Z,102619.50
2022-08-09T01:01:44.931Z,102618.56
2022-08-09T01:04:20.174Z,102624.69
2022-08-09T01:07:17.576Z,102621.06
2022-08-09T01:10:07.751Z,102630.31
2022-08-09T01:12:48.208Z,102629.25
2022-08-09T01:15:24.000Z,102641.88
2022-08-09T01:18:08.523Z,102619.50
2022-08-09T01:20:43.891Z,102615.50
2022-08-09T01:24:01.699Z,102625.56
2022-08-09T01:26:47.203Z,102631.72
2022-08-09T01:29:41.206Z,102635.78
2022-08-09T01:32:31.361Z,102635.09
2022-08-09T01:35:17.918Z,102630.38
2022-08-09T01:38:08.329Z,102632.06
2022-08-09T01:40:45.187Z,102635.31
2022-08-09T01:43:24.134Z,102629.63
2022-08-09T01:45:58.127Z,102622.69
2022-08-09T01:48:31.568Z,102625.16
2022-08-09T01:51:02.594Z,102624.78
2022-08-09T01:53:41.664Z,102629.75
2022-08-09T01:56:13.362Z,102621.69
2022-08-09T01:58:48.983Z,102627.34
2022-08-09T02:01:21.490Z,102621.00
2022-08-09T02:04:12.424Z,102620.47
2022-08-09T02:06:58.705Z,102625.03
2022-08-09T02:09:42.084Z,102619.44
2022-08-09T02:12:21.120Z,102626.13
2022-08-09T02:14:55.987Z,102630.03
2022-08-09T02:18:00.511Z,102625.22
2022-08-09T02:20:26.407Z,102633.06
2022-08-09T02:23:13.158Z,102632.31
2022-08-09T02:25:49.685Z,102630.97
2022-08-09T02:28:26.517Z,102630.22
2022-08-09T02:31:07.642Z,102626.25
2022-08-09T02:34:07.353Z,102627.19
2022-08-09T02:36:42.008Z,102623.47
2022-08-09T02:39:33.271Z,102626.75
2022-08-09T02:42:07.282Z,102623.09
2022-08-09T02:44:43.019Z,102622.75
2022-08-09T02:47:15.325Z,102613.06
2022-08-09T02:50:02.350Z,102622.06
2022-08-09T02:52:41.451Z,102618.50
2022-08-09T02:55:20.849Z,102609.13
2022-08-09T02:58:00.320Z,102605.03
2022-08-09T03:00:58.175Z,102605.53
2022-08-09T03:04:13.326Z,102604.00
2022-08-09T03:06:21.430Z,102608.88
2022-08-09T03:08:54.283Z,102604.06
2022-08-09T03:11:30.066Z,102605.66
2022-08-09T03:14:15.949Z,102604.41
2022-08-09T03:16:48.197Z,102612.22
2022-08-09T03:19:52.660Z,102606.63
2022-08-09T03:22:25.215Z,102611.19
2022-08-09T03:25:21.754Z,102609.22
2022-08-09T03:27:55.580Z,102611.06
2022-08-09T03:30:33.102Z,102609.22
2022-08-09T03:33:17.928Z,102611.69
2022-08-09T03:36:13.893Z,102606.78
2022-08-09T03:38:45.647Z,102610.03
2022-08-09T03:41:18.372Z,102615.75
2022-08-09T03:44:04.019Z,102616.59
2022-08-09T03:46:39.101Z,102621.53
2022-08-09T03:49:09.683Z,102618.31
2022-08-09T03:51:56.120Z,102620.31
2022-08-09T03:54:34.716Z,102622.41
2022-08-09T03:57:20.066Z,102631.38
2022-08-09T04:00:00.518Z,102624.00
2022-08-09T04:02:34.216Z,102614.69
2022-08-09T04:05:06.319Z,102624.09
2022-08-09T04:07:53.320Z,102617.59
2022-08-09T04:10:28.891Z,102618.78
2022-08-09T04:13:09.515Z,102623.31
2022-08-09T04:16:19.672Z,102616.84
2022-08-09T04:18:34.050Z,102623.78
2022-08-09T04:21:03.949Z,102605.22
2022-08-09T04:23:33.361Z,102628.38
2022-08-09T04:26:02.903Z,102618.25
2022-08-09T04:28:36.140Z,102628.38
2022-08-09T04:31:13.043Z,102625.13
2022-08-09T04:33:51.930Z,102629.13
2022-08-09T04:36:26.532Z,102627.53
2022-08-09T04:38:57.197Z,102633.28
2022-08-09T04:41:32.416Z,102637.72
2022-08-09T04:44:10.969Z,102634.88
2022-08-09T04:46:59.351Z,102643.03
2022-08-09T04:49:52.515Z,102638.09
2022-08-09T04:52:27.930Z,102641.81
2022-08-09T04:55:01.422Z,102642.94
2022-08-09T04:57:58.502Z,102657.53
2022-08-09T05:00:22.332Z,102651.84
2022-08-09T05:02:53.246Z,102660.28
2022-08-09T05:05:32.096Z,102663.50
2022-08-09T05:08:13.959Z,102656.56
2022-08-09T05:10:44.961Z,102658.97
2022-08-09T05:13:17.307Z,102658.97
2022-08-09T05:15:52.382Z,102661.75
2022-08-09T05:18:39.043Z,102668.59
2022-08-09T05:21:23.187Z,102667.25
2022-08-09T05:24:01.593Z,102663.56
2022-08-09T05:26:36.371Z,102666.47
2022-08-09T05:29:07.173Z,102663.56
2022-08-09T05:31:56.761Z,102673.22
2022-08-09T05:34:30.913Z,102665.81
2022-08-09T05:37:11.454Z,102664.84
2022-08-09T05:39:44.386Z,102669.97
2022-08-09T05:42:21.429Z,102671.88
2022-08-09T05:44:56.018Z,102673.53
2022-08-09T05:47:30.182Z,102677.59
2022-08-09T05:50:26.088Z,102673.81
2022-08-09T05:52:53.999Z,102673.28
2022-08-09T05:55:25.011Z,102668.22
2022-08-09T05:57:57.350Z,102672.88
2022-08-09T06:00:32.890Z,102673.25
2022-08-09T06:03:10.689Z,102648.97
2022-08-09T06:05:58.239Z,102662.03
2022-08-09T06:08:32.135Z,102664.81
2022-08-09T06:11:01.813Z,102680.13
2022-08-09T06:13:47.497Z,102683.53
2022-08-09T06:16:17.933Z,102695.53
2022-08-09T06:18:47.307Z,102682.34
2022-08-09T06:21:16.689Z,102680.25
2022-08-09T06:23:57.936Z,102686.25
2022-08-09T06:26:31.754Z,102687.66
2022-08-09T06:29:05.147Z,102678.00
2022-08-09T06:31:39.814Z,102687.22
2022-08-09T06:34:26.163Z,102688.16
2022-08-09T06:36:59.149Z,102691.69
2022-08-09T06:39:48.470Z,102692.25
2022-08-09T06:42:20.240Z,102695.78
2022-08-09T06:44:54.739Z,102690.63
2022-08-09T06:47:25.030Z,102695.81
2022-08-09T06:50:15.703Z,102677.41
2022-08-09T06:52:49.104Z,102688.78
2022-08-09T06:55:22.892Z,102700.63
2022-08-09T06:58:03.117Z,102700.38
2022-08-09T07:00:50.918Z,102697.56
2022-08-09T07:03:29.041Z,102697.69
2022-08-09T07:06:03.771Z,102706.59
2022-08-09T07:08:37.184Z,102688.13
2022-08-09T07:11:07.475Z,102705.28
2022-08-09T07:13:45.465Z,102707.75
2022-08-09T07:16:43.973Z,102715.66
2022-08-09T07:19:18.662Z,102720.84
2022-08-09T07:21:57.355Z,102720.00
2022-08-09T07:24:32.836Z,102725.84
2022-08-09T07:27:26.970Z,102722.19
2022-08-09T07:30:01.378Z,102721.94
2022-08-09T07:32:33.624Z,102714.47
2022-08-09T07:35:08.118Z,102711.53
2022-08-09T07:37:43.309Z,102717.31
2022-08-09T07:40:20.510Z,102707.44
2022-08-09T07:42:59.283Z,102722.22
2022-08-09T07:45:39.179Z,102721.19
2022-08-09T07:48:25.543Z,102724.09
2022-08-09T07:51:10.371Z,102717.50
2022-08-09T07:54:07.781Z,102718.31
2022-08-09T07:56:48.874Z,102716.63
2022-08-09T07:59:25.612Z,102720.78
2022-08-09T08:02:05.469Z,102730.41
2022-08-09T08:04:36.566Z,102740.75
2022-08-09T08:07:15.347Z,102737.28
2022-08-09T08:10:05.867Z,102733.28
2022-08-09T08:12:42.862Z,102732.00
2022-08-09T08:15:16.505Z,102735.81
2022-08-09T08:17:54.780Z,102739.13
2022-08-09T08:20:32.554Z,102730.72
2022-08-09T08:23:16.360Z,102726.59
2022-08-09T08:26:06.184Z,102729.63
2022-08-09T08:28:37.537Z,102741.84
2022-08-09T08:31:13.970Z,102727.75
2022-08-09T08:33:52.653Z,102720.09
2022-08-09T08:36:29.261Z,102720.84
2022-08-09T08:39:00.811Z,102721.50
2022-08-09T08:41:50.997Z,102718.63
2022-08-09T08:44:27.036Z,102728.56
2022-08-09T08:47:05.202Z,102717.81
2022-08-09T08:49:48.672Z,102730.63
2022-08-09T08:52:58.521Z,102730.00
2022-08-09T08:55:27.848Z,102728.63
2022-08-09T08:57:58.328Z,102734.72
2022-08-09T09:00:34.665Z,102727.66
2022-08-09T09:03:11.385Z,102732.47
2022-08-09T09:05:58.802Z,102737.59
2022-08-09T09:08:42.784Z,102748.97
2022-08-09T09:11:19.627Z,102747.69
2022-08-09T09:13:55.107Z,102734.22
2022-08-09T09:16:30.432Z,102741.44
2022-08-09T09:19:37.443Z,102746.06
2022-08-09T09:22:07.469Z,102745.75
2022-08-09T09:24:43.545Z,102736.31
2022-08-09T09:28:02.804Z,102750.41
2022-08-09T09:30:39.897Z,102739.50
2022-08-09T09:33:15.367Z,102751.66
2022-08-09T09:36:03.976Z,102734.19
2022-08-09T09:38:50.371Z,102750.47
2022-08-09T09:41:26.393Z,102744.81
2022-08-09T09:44:12.222Z,102736.59
2022-08-09T09:46:52.043Z,102735.75
2022-08-09T09:49:50.141Z,102737.81
2022-08-09T09:52:16.657Z,102712.38
2022-08-09T09:55:16.276Z,102752.72
2022-08-09T09:58:17.011Z,102742.97
2022-08-09T10:01:00.555Z,102736.94
2022-08-09T10:03:57.114Z,102744.06
2022-08-09T10:06:47.040Z,102730.63
2022-08-09T10:09:22.544Z,102748.19
2022-08-09T10:12:12.435Z,102738.72
2022-08-09T10:14:51.944Z,102745.13
2022-08-09T10:17:55.065Z,102740.84
2022-08-09T10:20:27.555Z,102743.06
2022-08-09T10:23:17.307Z,102745.31
2022-08-09T10:26:07.256Z,102733.44
2022-08-09T10:28:39.974Z,102739.94
2022-08-09T10:34:18.720Z,102733.22
2022-08-09T10:36:56.798Z,102734.50
2022-08-09T10:39:28.728Z,102729.13
2022-08-09T10:41:58.534Z,102727.59
2022-08-09T10:44:32.020Z,102734.16
2022-08-09T10:48:16.387Z,102729.03
2022-08-09T10:51:13.652Z,102715.41
2022-08-09T10:54:13.115Z,102728.16
2022-08-09T10:56:45.010Z,102709.53
2022-08-09T10:59:55.393Z,102707.41
2022-08-09T11:03:27.582Z,102714.00
2022-08-09T11:05:31.302Z,102697.81
2022-08-09T11:08:47.988Z,102704.50
2022-08-09T11:11:23.022Z,102697.81
2022-08-09T11:14:31.853Z,102716.53
2022-08-09T11:17:01.487Z,102709.00
2022-08-09T11:20:10.126Z,102705.91
2022-08-09T11:22:56.625Z,102712.56
2022-08-09T11:25:47.650Z,102709.34
2022-08-09T11:28:55.750Z,102721.03
2022-08-09T11:31:48.786Z,102703.38
2022-08-09T11:34:31.055Z,102701.00
2022-08-09T11:37:02.407Z,102698.41
2022-08-09T11:40:03.049Z,102688.81
2022-08-09T11:42:51.903Z,102693.75
2022-08-09T11:45:41.983Z,102695.38
2022-08-09T11:48:26.604Z,102690.41
2022-08-09T11:52:36.722Z,102688.63
2022-08-09T11:53:59.408Z,102680.25
2022-08-09T11:56:34.427Z,102686.03
2022-08-09T11:59:30.693Z,102692.19
2022-08-09T12:02:21.232Z,102684.56
2022-08-09T12:04:58.906Z,102679.25
2022-08-09T12:07:41.314Z,102685.31
2022-08-09T12:10:39.274Z,102691.53
2022-08-09T12:14:10.542Z,102682.59
2022-08-09T12:15:53.413Z,102672.84
2022-08-09T12:18:29.848Z,102679.47
2022-08-09T12:21:02.554Z,102666.38
2022-08-09T12:24:00.403Z,102671.63
2022-08-09T12:26:26.086Z,102675.22
2022-08-09T12:29:29.687Z,102673.13
2022-08-09T12:31:59.263Z,102664.44
2022-08-09T12:34:44.364Z,102664.13
2022-08-09T12:37:23.992Z,102654.41
2022-08-09T12:40:03.630Z,102647.47
2022-08-09T12:42:35.879Z,102659.16
2022-08-09T12:45:33.387Z,102656.91
2022-08-09T12:47:58.276Z,102661.44
2022-08-09T12:50:28.642Z,102655.88
2022-08-09T12:53:09.525Z,102648.50
2022-08-09T12:56:14.417Z,102646.50
2022-08-09T12:58:44.049Z,102648.59
2022-08-09T13:01:32.300Z,102644.44
2022-08-09T13:04:21.719Z,102649.41
2022-08-09T13:07:13.716Z,102638.34
2022-08-09T13:09:52.782Z,102641.25
2022-08-09T13:12:25.936Z,102643.75
2022-08-09T13:15:08.604Z,102618.09
2022-08-09T13:18:02.435Z,102639.94
2022-08-09T13:21:03.890Z,102630.88
2022-08-09T13:24:06.851Z,102635.47
2022-08-09T13:26:42.638Z,102626.00
2022-08-09T13:29:15.248Z,102624.38
2022-08-09T13:32:19.997Z,102626.75
2022-08-09T13:34:48.416Z,102626.94
2022-08-09T13:37:50.911Z,102619.88
2022-08-09T13:41:51.142Z,102614.63
2022-08-09T13:43:05.011Z,102607.47
2022-08-09T13:46:43.249Z,102620.56
2022-08-09T13:48:24.704Z,102612.50
2022-08-09T13:50:54.220Z,102604.22
2022-08-09T13:53:41.353Z,102599.47
2022-08-09T13:56:13.903Z,102591.94
2022-08-09T13:58:43.543Z,102600.69
2022-08-09T14:01:55.733Z,102598.50
2022-08-09T14:04:11.419Z,102589.13
2022-08-09T14:06:43.846Z,102593.66
2022-08-09T14:09:16.258Z,102592.31
2022-08-09T14:11:47.661Z,102588.66
2022-08-09T14:14:26.150Z,102596.78
2022-08-09T14:16:57.822Z,102589.41
2022-08-09T14:19:30.365Z,102580.94
2022-08-09T14:22:03.366Z,102596.66
2022-08-09T14:24:33.731Z,102587.03
2022-08-09T14:27:03.641Z,102600.53
2022-08-09T14:30:19.322Z,102593.81
2022-08-09T14:32:39.300Z,102596.22
2022-08-09T14:35:12.650Z,102588.81
2022-08-09T14:38:03.032Z,102585.34
2022-08-09T14:41:00.634Z,102592.25
2022-08-09T14:43:21.785Z,102594.88
2022-08-09T14:46:54.918Z,102583.97
2022-08-09T14:48:42.916Z,102585.69
2022-08-09T14:51:14.861Z,102589.22
2022-08-09T14:53:48.715Z,102582.88
2022-08-09T14:56:22.380Z,102589.75
2022-08-09T14:58:57.865Z,102585.00
2022-08-09T15:01:27.393Z,102583.97
2022-08-09T15:03:56.786Z,102579.47
2022-08-09T15:06:28.487Z,102575.44
2022-08-09T15:08:59.474Z,102585.66
2022-08-09T15:11:29.178Z,102583.53
2022-08-09T15:14:04.779Z,102595.13
2022-08-09T15:16:43.061Z,102587.31
2022-08-09T15:19:17.983Z,102576.72
2022-08-09T15:21:58.871Z,102573.84
2022-08-09T15:24:31.507Z,102573.66
2022-08-09T15:27:00.851Z,102570.47
2022-08-09T15:30:58.730Z,102570.19
2022-08-09T15:32:39.013Z,102568.66
2022-08-09T15:35:18.334Z,102577.88
2022-08-09T15:38:11.624Z,102563.66
2022-08-09T15:40:44.225Z,102564.13
2022-08-09T15:43:17.106Z,102569.69
2022-08-09T15:45:51.864Z,102563.91
2022-08-09T15:48:36.424Z,102560.38
2022-08-09T15:51:30.242Z,102557.72
2022-08-09T15:54:05.277Z,102549.81
2022-08-09T15:56:41.579Z,102557.75
2022-08-09T15:59:13.935Z,102550.81
2022-08-09T16:01:43.232Z,102547.91
2022-08-09T16:04:13.739Z,102556.03
2022-08-09T16:06:44.820Z,102547.91
2022-08-09T16:09:32.725Z,102541.00
2022-08-09T16:12:11.275Z,102543.16
2022-08-09T16:14:41.025Z,102530.47
2022-08-09T16:17:11.987Z,102537.31
2022-08-09T16:19:49.326Z,102539.63
2022-08-09T16:22:33.255Z,102528.84
2022-08-09T16:25:04.091Z,102528.31
2022-08-09T16:27:36.169Z,102525.47
2022-08-09T16:30:09.529Z,102519.44
2022-08-09T16:32:57.245Z,102531.31
2022-08-09T16:35:55.961Z,102529.75
2022-08-09T16:38:18.000Z,102527.28
2022-08-09T16:40:48.058Z,102531.97
2022-08-09T16:43:18.103Z,102539.00
2022-08-09T16:45:48.157Z,102524.56
2022-08-09T16:48:39.025Z,102531.69
2022-08-09T16:51:14.337Z,102543.78
2022-08-09T16:54:22.450Z,102532.19
2022-08-09T16:56:37.790Z,102535.31
2022-08-09T16:59:18.716Z,102535.66
2022-08-09T17:01:51.317Z,102529.41
2022-08-09T17:04:25.497Z,102536.78
2022-08-09T17:08:43.600Z,102531.16
2022-08-09T17:09:47.499Z,102532.78
2022-08-09T17:12:19.546Z,102527.69
2022-08-09T17:14:54.980Z,102525.09
2022-08-09T17:17:27.923Z,102535.09
2022-08-09T17:20:28.604Z,102531.06
2022-08-09T17:22:52.411Z,102531.06
2022-08-09T17:25:23.638Z,102530.06
2022-08-09T17:27:55.201Z,102528.44
2022-08-09T17:30:30.637Z,102526.28
2022-08-09T17:33:05.136Z,102529.94
2022-08-09T17:35:51.514Z,102535.13
2022-08-09T17:38:30.967Z,102530.13
2022-08-09T17:41:04.664Z,102536.03
2022-08-09T17:43:37.367Z,102525.13
2022-08-09T17:46:10.683Z,102525.72
2022-08-09T17:48:51.895Z,102543.34
2022-08-09T17:51:23.202Z,102546.13
2022-08-09T17:53:54.848Z,102548.16
2022-08-09T17:56:35.416Z,102545.44
2022-08-09T17:59:11.494Z,102544.88
2022-08-09T18:02:07.645Z,102547.69
2022-08-09T18:04:32.092Z,102552.31
2022-08-09T18:07:04.706Z,102552.31
2022-08-09T18:09:40.465Z,102549.59
2022-08-09T18:12:20.346Z,102559.38
2022-08-09T18:14:57.034Z,102562.69
2022-08-09T18:18:01.730Z,102558.63
2022-08-09T18:20:55.190Z,102565.84
2022-08-09T18:23:08.247Z,102560.75
2022-08-09T18:25:57.987Z,102568.88
2022-08-09T18:30:42.689Z,102563.47
2022-08-09T18:31:32.291Z,102575.34
2022-08-09T18:34:08.901Z,102569.59
2022-08-09T18:36:38.374Z,102567.34
2022-08-09T18:39:11.158Z,102568.84
2022-08-09T18:41:53.197Z,102561.59
2022-08-09T18:44:25.778Z,102573.53
2022-08-09T18:47:08.251Z,102568.75
2022-08-09T18:49:46.545Z,102575.16
2022-08-09T18:52:18.750Z,102565.88
2022-08-09T18:54:57.847Z,102561.19
2022-08-09T18:57:42.804Z,102556.81
2022-08-09T19:00:20.068Z,102569.38
2022-08-09T19:02:54.024Z,102565.88
2022-08-09T19:05:41.598Z,102562.13
2022-08-09T19:08:19.588Z,102574.69
2022-08-09T19:10:50.749Z,102576.84
2022-08-09T19:13:38.367Z,102577.75
2022-08-09T19:16:12.895Z,102577.13
2022-08-09T19:18:45.360Z,102586.19
2022-08-09T19:21:15.177Z,102587.06
2022-08-09T19:24:35.416Z,102586.63
2022-08-09T19:26:38.463Z,102586.06
2022-08-09T19:29:17.980Z,102591.50
2022-08-09T19:31:51.693Z,102588.81
2022-08-09T19:34:24.742Z,102602.19
2022-08-09T19:36:57.706Z,102590.09
2022-08-09T19:39:29.087Z,102582.38
2022-08-09T19:42:19.678Z,102602.63
2022-08-09T19:44:53.540Z,102590.66
2022-08-09T19:47:27.002Z,102599.97
2022-08-09T19:50:09.374Z,102597.59
2022-08-09T19:52:49.343Z,102593.13
2022-08-09T19:55:30.804Z,102585.47
2022-08-09T19:58:15.879Z,102586.44
2022-08-09T20:00:47.281Z,102584.91
2022-08-09T20:04:11.439Z,102585.22
2022-08-09T20:06:22.173Z,102584.63
2022-08-09T20:08:55.503Z,102588.75
2022-08-09T20:11:27.057Z,102589.44
2022-08-09T20:14:03.029Z,102580.94
2022-08-09T20:16:50.158Z,102589.06
2022-08-09T20:19:49.047Z,102583.00
2022-08-09T20:22:13.924Z,102580.13
2022-08-09T20:24:51.353Z,102573.25
2022-08-09T20:27:23.169Z,102580.28
2022-08-09T20:29:53.106Z,102576.59
2022-08-09T20:32:30.617Z,102578.69
2022-08-09T20:35:04.014Z,102576.75
2022-08-09T20:37:37.870Z,102582.31
2022-08-09T20:40:27.191Z,102583.63
2022-08-09T20:43:00.350Z,102583.94
2022-08-09T20:46:00.650Z,102583.94
2022-08-09T20:48:41.936Z,102582.78
2022-08-09T20:51:19.653Z,102581.34
2022-08-09T20:53:49.519Z,102584.81
2022-08-09T20:56:21.905Z,102578.09
2022-08-09T20:58:58.882Z,102583.50
2022-08-09T21:01:50.622Z,102577.56
2022-08-09T21:05:53.796Z,102581.06
2022-08-09T21:07:16.936Z,102591.09
2022-08-09T21:09:55.427Z,102586.66
2022-08-09T21:15:23.826Z,102592.03
2022-08-09T21:18:21.118Z,102600.97
2022-08-09T21:20:54.562Z,102604.78
2022-08-09T21:23:47.538Z,102608.69
2022-08-09T21:26:16.076Z,102603.44
2022-08-09T21:28:55.776Z,102609.72
2022-08-09T21:31:49.226Z,102617.53
2022-08-09T21:34:28.680Z,102611.91
2022-08-09T21:36:58.952Z,102608.84
2022-08-09T21:39:42.144Z,102617.25
2022-08-09T21:42:13.050Z,102616.66
2022-08-09T21:44:43.670Z,102617.00
2022-08-09T21:47:18.273Z,102614.88
2022-08-09T21:49:48.188Z,102613.91
2022-08-09T21:52:20.930Z,102616.72
2022-08-09T21:54:57.182Z,102613.66
2022-08-09T21:57:59.619Z,102619.88
2022-08-09T22:00:33.572Z,102616.88
2022-08-09T22:03:19.684Z,102616.19
2022-08-09T22:05:57.909Z,102613.13
2022-08-09T22:08:28.300Z,102620.63
2022-08-09T22:11:50.537Z,102611.66
2022-08-09T22:13:48.299Z,102619.25
2022-08-09T22:16:19.570Z,102619.59
2022-08-09T22:18:54.005Z,102613.91
2022-08-09T22:21:45.272Z,102620.72
2022-08-09T22:24:24.092Z,102624.03
2022-08-09T22:26:54.295Z,102627.94
2022-08-09T22:29:32.251Z,102622.53
2022-08-09T22:32:29.853Z,102627.34
2022-08-09T22:35:02.619Z,102631.28
2022-08-09T22:37:40.332Z,102630.25
2022-08-09T22:40:20.000Z,102629.56
2022-08-09T22:42:49.863Z,102624.22
2022-08-09T22:48:12.379Z,102628.50
2022-08-09T22:48:19.879Z,102639.50
2022-08-09T22:50:58.059Z,102635.59
2022-08-09T22:53:44.097Z,102626.31
2022-08-09T22:56:33.376Z,102627.13
2022-08-09T22:59:57.101Z,102633.91
2022-08-09T23:01:55.335Z,102628.63
2022-08-09T23:04:25.548Z,102629.91
2022-08-09T23:07:11.115Z,102624.63
2022-08-09T23:09:41.612Z,102619.13
2022-08-09T23:12:11.068Z,102631.97
2022-08-09T23:14:42.195Z,102625.88
2022-08-09T23:17:13.086Z,102618.88
2022-08-09T23:20:00.667Z,102615.78
2022-08-09T23:22:31.755Z,102610.19
2022-08-09T23:25:01.154Z,102610.88
2022-08-09T23:27:30.546Z,102602.94
2022-08-09T23:29:59.848Z,102600.66
2022-08-09T23:32:31.997Z,102592.06
2022-08-09T23:35:01.498Z,102589.53
2022-08-09T23:37:30.783Z,102600.88
2022-08-09T23:40:00.126Z,102600.19
2022-08-09T23:42:31.049Z,102587.91
2022-08-09T23:45:00.946Z,102593.09
2022-08-09T23:47:30.234Z,102600.63
2022-08-09T23:49:59.595Z,102602.44
2022-08-09T23:52:28.911Z,102610.69
2022-08-09T23:55:00.269Z,102604.16
2022-08-09T23:57:29.755Z,102610.91
